Latest Observation

25 Stations

15 Minute Data | America/Los_Angeles
as of 8/31/26 8:49 PM PDT
Station Date Time Temp (°F) RH (%) Dew Pt (°F) Wind Spd (mph) Wind Dir (°) Wind Gust (mph) Latest Rain (In) Daily Rain (In) Daily Min Temp (°F) Daily Max Temp (°F)
Rockpile Upper (Cooley) 8/31/26 2045 54.6   14.2 81   42 48.9   6.3 16.3   13.7 NW | 326 27.0   19.5 0.00 0.00 48.6   3.2 77.1   9.5
Rockpile Lower (Cooley) 8/31/26 2030 58.9   12.8 73   33 50.1   4.0 4.8   3.8 NNW | 327 13.0   10.3 0.00 0.00 49.1   4.6 80.1   10.5
Cloverdale-East (Ranch 83) 8/31/26 2045 64.1   7.3 - - 3.8   2.8 SW | 235 8.4   4.6 0.00 0.00 48.1   1.5 81.1   10.3
Cloverdale-SE (Ranch 38) 8/31/26 2045 62.5   8.6 72   23 53.4   2.4 6.0   0.6 SSE | 156 8.6   0.0 0.00 0.00 50.9   3.0 78.2   10.7
Geyserville-North (Hoffman) 8/31/26 2045 63.1   6.8 71   18 53.7   1.6 3.4   1.3 ESE | 119 7.4   2.8 0.00 0.00 49.9   4.5 79.0   9.9
Geyserville (Ranch 3) 8/31/26 2045 62.6   6.6 71   20 52.9   2.8 3.7   2.3 ESE | 113 7.9   4.8 0.00 0.00 50.6   4.0 78.3   10.9
Geyserville-East (Ranch 40) 8/31/26 2045 59.7   6.9 80   21 53.5   1.7 9.8   2.7 SSE | 150 15.1   5.3 0.00 0.00 51.2   1.7 77.2   9.4
Geyserville-South (Nervo Station) 8/31/26 2045 61.2   6.4 - - 3.3   0.5 ESE | 112 6.4   0.7 0.00 0.00 51.6   1.4 77.2   10.9
Peterson (Ranch 09) 8/31/26 2045 60.9   5.4 72   18 51.9   2.5 3.8   1.7 ESE | 103 6.9   2.1 0.00 0.00 50.1   5.3 77.1   10.3
Crazy Creek Ranch 8/31/26 2045 61.5   4.9 76   17 53.7   2.1 2.3   1.1 SE | 141 6.3   3.8 0.00 0.00 48.8   3.7 78.3   10.3
Whitton Ranch (201e) 8/31/26 2045 60.4   6.2 76   20 52.9   2.3 2.0   0.7 E | 100 5.5   1.8 0.00 0.00 45.2   4.5 79.2   10.8
Lytton East (Shop Hill Bottom) 8/31/26 2045 60.1   5.3 75   17 52.0   1.9 1.6   1.0 E | 80 3.3   1.4 0.00 0.00 48.2   2.8 77.2   10.3
Lytton East (Hill 5) 8/31/26 2045 60.8   4.6 74   16 52.5   2.1 2.2   2.7 ENE | 73 5.3   2.4 0.00 0.00 50.4   1.4 76.5   10.9
Lytton West Lower (Lew 6) 8/31/26 2045 60.9   4.1 74   14 52.7   1.9 1.5   1.3 ESE | 119 4.2   1.9 0.00 0.00 47.1   2.9 77.8   9.8
Lytton West Hill (23PS) 8/31/26 2045 61.2   3.3 75   12 53.3   1.7 2.8   2.1 E | 101 6.3   3.3 0.00 0.00 51.0   1.2 76.6   10.4
Big River 8/31/26 2045 60.1   7.1 80   23 53.8   2.5 1.7   1.9 E | 90 5.3   1.4 0.00 0.00 50.4   1.8 75.7   9.7
Jimtown-North (Piccolo Ranch 15) 8/31/26 2045 61.6   4.5 70   16 51.7   2.8 2.7   2.7 ESE | 104 7.5   6.4 0.00 0.00 48.4   4.4 78.7   10.5
HWY 128/Chalk Hill Rd (Landslide) 8/31/26 2000 63.2   6.8 70   17 53.1   1.3 4.6   3.7 SSE | 167 10.5   7.8 0.00 0.00 50.4   7.0 78.4   10.5
N Chalk Hill Rd (Ranch 63) 8/31/26 2045 60.3   5.8 75   20 52.5   2.6 3.4   2.3 SE | 131 6.7   4.0 0.00 0.00 48.2   5.9 76.2   9.8
Newman Knights Valley 8/18/26 0015 56.2   1.8 85   4 51.7   0.4 0.8   3.5 NE | 55 2.3   5.8 0.00 0.00 55.0   1.2 88.3   0.6
Knights Valley (Bavarian Lion) 8/31/26 2045 58.6   3.1 76   12 50.9   1.8 1.5   0.9 ESE | 112 2.9   0.5 0.00 0.00 49.5   7.4 77.3   9.4
Red Tail 8/31/26 2045 59.9   5.2 80   18 53.6   2.1 3.4   2.1 ESE | 118 8.6   6.1 0.00 0.00 47.6   2.9 76.2   9.0
Franz Valley (Stornetta) 8/31/26 2045 59.6   3.1 78   14 52.7   2.5 3.1   3.0 ESE | 115 7.5   6.3 0.00 0.00 48.8   6.7 75.5   11.8
Upper Dry Creek Valley 8/31/26 2015 64.2   7.1 68   19 53.4   2.2 1.6   2.2 SE | 138 5.3   2.5 0.00 0.00 48.7   2.7 79.6   9.3
Lower Dry Creek Valley 8/31/26 2045 61.4   3.8 74   13 52.9   1.9 0.9   2.1 ESE | 105 5.1   3.6 0.00 0.00 48.1   3.4 77.2   9.2
Max     64.2 81 53.8 16.3 - 27.0 0.00 0.00 51.6 81.1
Avg     60.9 74 52.6 3.8 - 8.0 0.00 - - -
Min     54.6 68 48.9 0.9 - 2.9 0.00 0.00 45.2 75.5